createdAt,value
2023-08-30T00:04:56.284Z,76.2
2023-08-30T00:10:32.017Z,76.6
2023-08-30T00:16:08.520Z,76.8
2023-08-30T00:21:44.298Z,77
2023-08-30T00:27:20.563Z,77
2023-08-30T00:32:56.211Z,77.1
2023-08-30T00:38:31.917Z,76.9
2023-08-30T00:44:07.555Z,76.9
2023-08-30T00:49:42.753Z,76.7
2023-08-30T00:55:18.607Z,76.8
2023-08-30T01:00:54.110Z,76.9
2023-08-30T01:06:29.853Z,77.1
2023-08-30T01:12:05.370Z,77.6
2023-08-30T01:17:41.319Z,77.7
2023-08-30T01:23:17.192Z,77.8
2023-08-30T01:28:52.470Z,78.2
2023-08-30T01:34:28.462Z,78.6
2023-08-30T01:40:04.493Z,78.7
2023-08-30T01:45:39.993Z,78.8
2023-08-30T01:51:15.684Z,79
2023-08-30T01:56:50.792Z,79.2
2023-08-30T02:02:26.081Z,79.3
2023-08-30T02:08:02.538Z,79.4
2023-08-30T02:13:37.925Z,79.5
2023-08-30T02:19:14.127Z,79.6
2023-08-30T02:24:51.201Z,79.6
2023-08-30T02:30:26.707Z,79.8
2023-08-30T02:36:01.743Z,80
2023-08-30T02:41:37.856Z,80.1
2023-08-30T02:47:13.003Z,80
2023-08-30T02:52:48.200Z,80.1
2023-08-30T02:58:23.799Z,80.2
2023-08-30T03:03:59.207Z,80.2
2023-08-30T03:09:34.833Z,80.3
2023-08-30T03:15:10.467Z,80.4
2023-08-30T03:20:45.753Z,80.2
2023-08-30T03:26:21.820Z,80.3
2023-08-30T03:31:58.440Z,80.4
2023-08-30T03:37:33.584Z,80.3
2023-08-30T03:43:09.235Z,80.2
2023-08-30T03:48:44.610Z,80.2
2023-08-30T03:54:20.988Z,80.1
2023-08-30T03:59:56.924Z,80
2023-08-30T04:05:32.543Z,79.8
2023-08-30T04:11:08.672Z,79.6
2023-08-30T04:16:44.609Z,79.6
2023-08-30T04:22:21.466Z,79.6
2023-08-30T04:27:56.637Z,79.7
2023-08-30T04:33:32.145Z,79.9
2023-08-30T04:39:07.957Z,80
2023-08-30T04:44:43.352Z,80.2
2023-08-30T04:50:18.534Z,80.4
2023-08-30T04:55:54.608Z,80.5
2023-08-30T05:01:29.670Z,80.6
2023-08-30T05:07:05.262Z,80.6
2023-08-30T05:12:41.204Z,80.8
2023-08-30T05:18:16.400Z,81
2023-08-30T05:23:51.642Z,80.9
2023-08-30T05:29:27.386Z,81.2
2023-08-30T05:35:03.009Z,81.4
2023-08-30T05:40:38.487Z,81.5
2023-08-30T05:46:14.410Z,81.6
2023-08-30T05:51:51.058Z,81.3
2023-08-30T05:57:27.151Z,81
2023-08-30T06:03:03.292Z,80.9
2023-08-30T06:08:39.409Z,81
2023-08-30T06:14:15.166Z,81.2
2023-08-30T06:19:50.600Z,82.1
2023-08-30T06:25:26.170Z,82.8
2023-08-30T06:31:01.898Z,82.9
2023-08-30T06:36:37.661Z,84.5
2023-08-30T06:42:12.787Z,84.1
2023-08-30T06:47:47.997Z,81.3
2023-08-30T06:53:23.602Z,78.8
2023-08-30T06:58:59.183Z,78.6
2023-08-30T07:04:34.527Z,78
2023-08-30T07:10:10.705Z,80.5
2023-08-30T07:15:46.225Z,81
2023-08-30T07:21:22.752Z,82.2
2023-08-30T07:26:58.535Z,83.6
2023-08-30T07:32:33.861Z,84
2023-08-30T07:38:09.801Z,84
2023-08-30T07:43:46.772Z,85.5
2023-08-30T07:49:21.907Z,85.4
2023-08-30T07:54:57.619Z,87.6
2023-08-30T08:00:33.777Z,86.8
2023-08-30T08:06:09.975Z,86
2023-08-30T08:11:45.526Z,85.1
2023-08-30T08:17:21.796Z,85.2
2023-08-30T08:22:57.677Z,83.2
2023-08-30T08:28:33.377Z,83.7
2023-08-30T08:34:09.323Z,84.2
2023-08-30T08:39:44.992Z,83.7
2023-08-30T08:45:20.680Z,84.9
2023-08-30T08:50:56.565Z,82.6
2023-08-30T08:56:33.738Z,81.2
2023-08-30T09:02:11.364Z,80.9
2023-08-30T09:07:46.887Z,81.7
2023-08-30T09:13:22.014Z,79.5
2023-08-30T09:19:11.162Z,78.7
2023-08-30T09:24:47.177Z,77.7
2023-08-30T09:30:22.629Z,74.1
2023-08-30T09:35:59.247Z,78.6
2023-08-30T09:41:34.903Z,75.6
2023-08-30T09:47:10.194Z,77.7
2023-08-30T09:52:45.582Z,75.1
2023-08-30T09:58:23.153Z,72.9
2023-08-30T10:03:58.689Z,72.1
2023-08-30T10:09:35.516Z,74.7
2023-08-30T10:15:11.547Z,76.9
2023-08-30T10:20:48.104Z,76.1
2023-08-30T10:26:23.107Z,76.5
2023-08-30T10:31:59.228Z,72.5
2023-08-30T10:37:37.868Z,69.3
2023-08-30T10:43:13.328Z,69.9
2023-08-30T10:48:49.462Z,73.2
2023-08-30T10:54:24.757Z,71.2
2023-08-30T11:00:00.318Z,70
2023-08-30T11:05:36.793Z,70.8
2023-08-30T11:11:12.232Z,71.5
2023-08-30T11:16:47.735Z,69
2023-08-30T11:22:24.076Z,70.5
2023-08-30T11:27:59.805Z,69.5
2023-08-30T11:33:35.662Z,66.5
2023-08-30T11:39:11.360Z,69.8
2023-08-30T11:44:47.518Z,68.2
2023-08-30T11:50:28.176Z,64.8
2023-08-30T11:56:24.290Z,63.3
2023-08-30T12:02:01.241Z,63.9
2023-08-30T12:07:36.925Z,66.7
2023-08-30T12:13:12.450Z,66.6
2023-08-30T12:18:47.876Z,61.3
2023-08-30T12:24:23.390Z,61.7
2023-08-30T12:29:59.728Z,61.1
2023-08-30T12:35:34.911Z,65.4
2023-08-30T12:41:10.563Z,66.9
2023-08-30T12:46:46.458Z,68
2023-08-30T12:52:22.299Z,61.6
2023-08-30T12:57:57.840Z,59.5
2023-08-30T13:03:33.545Z,58.6
2023-08-30T13:09:09.581Z,55.5
2023-08-30T13:14:44.840Z,58.8
2023-08-30T13:20:20.565Z,54.6
2023-08-30T13:25:56.658Z,48.7
2023-08-30T13:31:32.199Z,57.4
2023-08-30T13:37:08.105Z,65.5
2023-08-30T13:42:43.062Z,67.1
2023-08-30T13:48:18.589Z,69
2023-08-30T13:53:54.818Z,71.1
2023-08-30T13:59:30.532Z,75.3
2023-08-30T14:05:05.886Z,76
2023-08-30T14:10:42.852Z,76.1
2023-08-30T14:16:18.339Z,77.4
2023-08-30T14:21:54.451Z,78.7
2023-08-30T14:27:30.161Z,76.9
2023-08-30T14:33:05.696Z,75.1
2023-08-30T14:38:41.049Z,72.9
2023-08-30T14:44:16.557Z,71.1
2023-08-30T14:49:52.728Z,68.7
2023-08-30T14:55:28.455Z,69.1
2023-08-30T15:01:05.154Z,69.7
2023-08-30T15:06:41.157Z,72.1
2023-08-30T15:12:16.423Z,75.5
2023-08-30T15:17:52.452Z,76.8
2023-08-30T15:23:29.118Z,77
2023-08-30T15:29:04.346Z,73
2023-08-30T15:34:39.610Z,73.8
2023-08-30T15:40:15.347Z,71.9
2023-08-30T15:45:51.439Z,70.3
2023-08-30T15:51:28.428Z,69.7
2023-08-30T15:57:04.531Z,67.7
2023-08-30T16:02:40.326Z,63.6
2023-08-30T16:08:17.523Z,61.7
2023-08-30T16:13:54.547Z,61.1
2023-08-30T16:19:30.854Z,64
2023-08-30T16:25:06.429Z,64.9
2023-08-30T16:30:42.048Z,70.1
2023-08-30T16:36:17.661Z,69.9
2023-08-30T16:41:53.578Z,70
2023-08-30T16:47:29.267Z,70.9
2023-08-30T16:53:17.893Z,69.6
2023-08-30T16:58:53.571Z,66.2
2023-08-30T17:04:28.685Z,67.3
2023-08-30T17:10:03.990Z,68.7
2023-08-30T17:15:39.404Z,70.4
2023-08-30T17:21:14.731Z,67.8
2023-08-30T17:26:50.387Z,70.4
2023-08-30T17:32:26.152Z,74.9
2023-08-30T17:38:01.593Z,76.5
2023-08-30T17:43:37.421Z,76.8
2023-08-30T17:49:14.686Z,77.6
2023-08-30T17:54:50.647Z,78.9
2023-08-30T18:00:25.546Z,80.9
2023-08-30T18:06:01.084Z,81.3
2023-08-30T18:11:36.568Z,82.4
2023-08-30T18:17:11.747Z,82.3
2023-08-30T18:22:46.898Z,82.6
2023-08-30T18:28:22.072Z,82.4
2023-08-30T18:33:57.520Z,81.2
2023-08-30T18:39:32.928Z,82.7
2023-08-30T18:45:08.476Z,83
2023-08-30T18:50:45.181Z,83.1
2023-08-30T18:56:22.459Z,84.1
2023-08-30T19:01:58.247Z,84.4
2023-08-30T19:07:35.711Z,84.8
2023-08-30T19:13:13.152Z,85
2023-08-30T19:18:49.693Z,84.8
2023-08-30T19:24:25.189Z,82.4
2023-08-30T19:30:01.746Z,81.7
2023-08-30T19:35:37.126Z,81.3
2023-08-30T19:41:13.131Z,81
2023-08-30T19:46:49.164Z,80.9
2023-08-30T19:52:26.755Z,80.7
2023-08-30T19:58:03.465Z,80.6
2023-08-30T20:03:41.435Z,80.6
2023-08-30T20:09:20.237Z,80.5
2023-08-30T20:14:57.308Z,80.5
2023-08-30T20:20:35.608Z,80.5
2023-08-30T20:26:13.063Z,80.4
2023-08-30T20:31:49.580Z,80.3
2023-08-30T20:37:25.799Z,80.1
2023-08-30T20:43:00.447Z,80.1
2023-08-30T20:48:35.938Z,80
2023-08-30T20:54:11.523Z,80
2023-08-30T20:59:46.498Z,79.8
2023-08-30T21:05:21.665Z,79.7
2023-08-30T21:10:57.612Z,79.7
2023-08-30T21:16:32.913Z,79.5
2023-08-30T21:22:08.968Z,79.4
2023-08-30T21:27:44.694Z,79.4
2023-08-30T21:33:20.374Z,79.3
2023-08-30T21:38:55.607Z,79.4
2023-08-30T21:44:31.488Z,79.4
2023-08-30T21:50:06.732Z,79.5
2023-08-30T21:55:41.935Z,79.6
2023-08-30T22:01:18.104Z,79.6
2023-08-30T22:06:54.088Z,79.7
2023-08-30T22:12:29.692Z,79.7
2023-08-30T22:18:06.272Z,79.8
2023-08-30T22:23:41.986Z,79.8
2023-08-30T22:29:17.129Z,79.9
2023-08-30T22:34:52.895Z,80
2023-08-30T22:40:28.155Z,80.1
2023-08-30T22:46:03.624Z,80.2
2023-08-30T22:51:54.943Z,80.3
2023-08-30T22:57:30.810Z,80.2
2023-08-30T23:03:06.650Z,80.3
2023-08-30T23:08:42.570Z,80.2
2023-08-30T23:14:17.705Z,80.2
2023-08-30T23:19:53.026Z,80.1
2023-08-30T23:25:28.668Z,80.1
2023-08-30T23:31:04.564Z,80
2023-08-30T23:36:41.746Z,80
2023-08-30T23:42:17.370Z,79.9
2023-08-30T23:47:52.845Z,79.7
2023-08-30T23:53:28.795Z,79.7
2023-08-30T23:59:05.183Z,79.6
